sensor_id;sensor_type;location;lat;lon;timestamp;temperature;humidity
11840;DHT22;5979;50.800;4.904;2023-07-22T00:02:19;15.00;99.90
11840;DHT22;5979;50.800;4.904;2023-07-22T00:04:46;14.90;99.90
11840;DHT22;5979;50.800;4.904;2023-07-22T00:07:11;14.90;99.90
11840;DHT22;5979;50.800;4.904;2023-07-22T00:09:37;14.80;99.90
11840;DHT22;5979;50.800;4.904;2023-07-22T00:12:04;14.80;99.90
11840;DHT22;5979;50.800;4.904;2023-07-22T00:14:30;14.80;99.90
11840;DHT22;5979;50.800;4.904;2023-07-22T00:16:56;14.80;99.90
11840;DHT22;5979;50.800;4.904;2023-07-22T00:19:21;14.80;99.90
11840;DHT22;5979;50.800;4.904;2023-07-22T00:21:49;14.80;99.90
11840;DHT22;5979;50.800;4.904;2023-07-22T00:24:14;14.80;99.90
11840;DHT22;5979;50.800;4.904;2023-07-22T00:26:40;14.70;99.90
11840;DHT22;5979;50.800;4.904;2023-07-22T00:29:07;14.70;99.90
11840;DHT22;5979;50.800;4.904;2023-07-22T00:31:33;14.70;99.90
11840;DHT22;5979;50.800;4.904;2023-07-22T00:33:59;14.70;99.90
11840;DHT22;5979;50.800;4.904;2023-07-22T00:36:25;14.70;99.90
11840;DHT22;5979;50.800;4.904;2023-07-22T00:38:51;14.70;99.90
11840;DHT22;5979;50.800;4.904;2023-07-22T00:41:18;14.70;99.90
11840;DHT22;5979;50.800;4.904;2023-07-22T00:43:44;14.60;99.90
11840;DHT22;5979;50.800;4.904;2023-07-22T00:46:09;14.70;99.90
11840;DHT22;5979;50.800;4.904;2023-07-22T00:48:35;14.60;99.90
11840;DHT22;5979;50.800;4.904;2023-07-22T00:51:02;14.60;99.90
11840;DHT22;5979;50.800;4.904;2023-07-22T00:53:27;14.60;99.90
11840;DHT22;5979;50.800;4.904;2023-07-22T00:55:54;14.50;99.90
11840;DHT22;5979;50.800;4.904;2023-07-22T00:58:20;14.50;99.90
11840;DHT22;5979;50.800;4.904;2023-07-22T01:00:46;14.50;99.90
11840;DHT22;5979;50.800;4.904;2023-07-22T01:03:12;14.40;99.90
11840;DHT22;5979;50.800;4.904;2023-07-22T01:05:39;14.40;99.90
11840;DHT22;5979;50.800;4.904;2023-07-22T01:08:05;14.40;99.90
11840;DHT22;5979;50.800;4.904;2023-07-22T01:10:31;14.30;99.90
11840;DHT22;5979;50.800;4.904;2023-07-22T01:12:57;14.30;99.90
11840;DHT22;5979;50.800;4.904;2023-07-22T01:15:24;14.30;99.90
11840;DHT22;5979;50.800;4.904;2023-07-22T01:17:50;14.30;99.90
11840;DHT22;5979;50.800;4.904;2023-07-22T01:20:17;14.30;99.90
11840;DHT22;5979;50.800;4.904;2023-07-22T01:22:54;14.30;99.90
11840;DHT22;5979;50.800;4.904;2023-07-22T01:25:23;14.30;99.90
11840;DHT22;5979;50.800;4.904;2023-07-22T01:27:50;14.30;99.90
11840;DHT22;5979;50.800;4.904;2023-07-22T01:30:16;14.30;99.90
11840;DHT22;5979;50.800;4.904;2023-07-22T01:32:42;14.30;99.90
11840;DHT22;5979;50.800;4.904;2023-07-22T01:35:08;14.30;99.90
11840;DHT22;5979;50.800;4.904;2023-07-22T01:37:35;14.30;99.90
11840;DHT22;5979;50.800;4.904;2023-07-22T01:40:01;14.30;99.90
11840;DHT22;5979;50.800;4.904;2023-07-22T01:42:36;14.30;99.90
11840;DHT22;5979;50.800;4.904;2023-07-22T01:45:02;14.20;99.90
11840;DHT22;5979;50.800;4.904;2023-07-22T01:47:27;14.20;99.90
11840;DHT22;5979;50.800;4.904;2023-07-22T01:49:53;14.20;99.90
11840;DHT22;5979;50.800;4.904;2023-07-22T01:52:19;14.20;99.90
11840;DHT22;5979;50.800;4.904;2023-07-22T01:54:47;14.20;99.90
11840;DHT22;5979;50.800;4.904;2023-07-22T01:57:12;14.20;99.90
11840;DHT22;5979;50.800;4.904;2023-07-22T01:59:38;14.20;99.90
11840;DHT22;5979;50.800;4.904;2023-07-22T02:02:04;14.30;99.90
11840;DHT22;5979;50.800;4.904;2023-07-22T02:04:30;14.30;99.90
11840;DHT22;5979;50.800;4.904;2023-07-22T02:06:56;14.30;99.90
11840;DHT22;5979;50.800;4.904;2023-07-22T02:09:21;14.30;99.90
11840;DHT22;5979;50.800;4.904;2023-07-22T02:11:47;14.30;99.90
11840;DHT22;5979;50.800;4.904;2023-07-22T02:14:13;14.40;99.90
11840;DHT22;5979;50.800;4.904;2023-07-22T02:16:39;14.40;99.90
11840;DHT22;5979;50.800;4.904;2023-07-22T02:19:05;14.30;99.90
11840;DHT22;5979;50.800;4.904;2023-07-22T02:21:31;14.30;99.90
11840;DHT22;5979;50.800;4.904;2023-07-22T02:23:56;14.30;99.90
11840;DHT22;5979;50.800;4.904;2023-07-22T02:26:22;14.20;99.90
11840;DHT22;5979;50.800;4.904;2023-07-22T02:28:48;14.20;99.90
11840;DHT22;5979;50.800;4.904;2023-07-22T02:31:13;14.10;99.90
11840;DHT22;5979;50.800;4.904;2023-07-22T02:33:39;14.00;99.90
11840;DHT22;5979;50.800;4.904;2023-07-22T02:36:05;14.00;99.90
11840;DHT22;5979;50.800;4.904;2023-07-22T02:38:30;14.00;99.90
11840;DHT22;5979;50.800;4.904;2023-07-22T02:41:03;14.00;99.90
11840;DHT22;5979;50.800;4.904;2023-07-22T02:43:31;13.90;99.90
11840;DHT22;5979;50.800;4.904;2023-07-22T02:45:56;13.90;99.90
11840;DHT22;5979;50.800;4.904;2023-07-22T02:48:23;13.90;99.90
11840;DHT22;5979;50.800;4.904;2023-07-22T02:50:48;13.90;99.90
11840;DHT22;5979;50.800;4.904;2023-07-22T02:53:15;13.80;99.90
11840;DHT22;5979;50.800;4.904;2023-07-22T02:55:40;13.80;99.90
11840;DHT22;5979;50.800;4.904;2023-07-22T02:58:06;13.70;99.90
11840;DHT22;5979;50.800;4.904;2023-07-22T03:00:32;13.70;99.90
11840;DHT22;5979;50.800;4.904;2023-07-22T03:02:57;13.60;99.90
11840;DHT22;5979;50.800;4.904;2023-07-22T03:05:30;13.60;99.90
11840;DHT22;5979;50.800;4.904;2023-07-22T03:07:56;13.60;99.90
11840;DHT22;5979;50.800;4.904;2023-07-22T03:10:22;13.60;99.90
11840;DHT22;5979;50.800;4.904;2023-07-22T03:12:48;13.60;99.90
11840;DHT22;5979;50.800;4.904;2023-07-22T03:15:14;13.60;99.90
11840;DHT22;5979;50.800;4.904;2023-07-22T03:17:40;13.60;99.90
11840;DHT22;5979;50.800;4.904;2023-07-22T03:20:07;13.70;99.90
11840;DHT22;5979;50.800;4.904;2023-07-22T03:22:43;13.70;99.90
11840;DHT22;5979;50.800;4.904;2023-07-22T03:25:13;13.70;99.90
11840;DHT22;5979;50.800;4.904;2023-07-22T03:27:39;13.60;99.90
11840;DHT22;5979;50.800;4.904;2023-07-22T03:30:06;13.70;99.90
11840;DHT22;5979;50.800;4.904;2023-07-22T03:32:33;13.70;99.90
11840;DHT22;5979;50.800;4.904;2023-07-22T03:34:59;13.60;99.90
11840;DHT22;5979;50.800;4.904;2023-07-22T03:37:25;13.60;99.90
11840;DHT22;5979;50.800;4.904;2023-07-22T03:39:50;13.60;99.90
11840;DHT22;5979;50.800;4.904;2023-07-22T03:42:16;13.60;99.90
11840;DHT22;5979;50.800;4.904;2023-07-22T03:44:42;13.60;99.90
11840;DHT22;5979;50.800;4.904;2023-07-22T03:47:07;13.60;99.90
11840;DHT22;5979;50.800;4.904;2023-07-22T03:49:33;13.60;99.90
11840;DHT22;5979;50.800;4.904;2023-07-22T03:51:58;13.60;99.90
11840;DHT22;5979;50.800;4.904;2023-07-22T03:54:27;13.60;99.90
11840;DHT22;5979;50.800;4.904;2023-07-22T03:56:52;13.60;99.90
11840;DHT22;5979;50.800;4.904;2023-07-22T03:59:18;13.60;99.90
11840;DHT22;5979;50.800;4.904;2023-07-22T04:01:44;13.60;99.90
11840;DHT22;5979;50.800;4.904;2023-07-22T04:04:09;13.60;99.90
11840;DHT22;5979;50.800;4.904;2023-07-22T04:06:35;13.70;99.90
11840;DHT22;5979;50.800;4.904;2023-07-22T04:09:00;13.70;99.90
11840;DHT22;5979;50.800;4.904;2023-07-22T04:11:26;13.70;99.90
11840;DHT22;5979;50.800;4.904;2023-07-22T04:13:53;13.70;99.90
11840;DHT22;5979;50.800;4.904;2023-07-22T04:16:18;13.70;99.90
11840;DHT22;5979;50.800;4.904;2023-07-22T04:18:44;13.70;99.90
11840;DHT22;5979;50.800;4.904;2023-07-22T04:21:10;13.80;99.90
11840;DHT22;5979;50.800;4.904;2023-07-22T04:23:35;13.90;99.90
11840;DHT22;5979;50.800;4.904;2023-07-22T04:26:02;13.80;99.90
11840;DHT22;5979;50.800;4.904;2023-07-22T04:28:30;13.90;99.90
11840;DHT22;5979;50.800;4.904;2023-07-22T04:30:57;13.90;99.90
11840;DHT22;5979;50.800;4.904;2023-07-22T04:33:24;14.00;99.90
11840;DHT22;5979;50.800;4.904;2023-07-22T04:35:52;14.10;99.90
11840;DHT22;5979;50.800;4.904;2023-07-22T04:38:18;14.10;99.90
11840;DHT22;5979;50.800;4.904;2023-07-22T04:40:44;14.20;99.90
11840;DHT22;5979;50.800;4.904;2023-07-22T04:43:09;14.30;99.90
11840;DHT22;5979;50.800;4.904;2023-07-22T04:45:35;14.40;99.90
11840;DHT22;5979;50.800;4.904;2023-07-22T04:48:02;14.50;99.90
11840;DHT22;5979;50.800;4.904;2023-07-22T04:50:28;14.80;99.90
11840;DHT22;5979;50.800;4.904;2023-07-22T04:52:54;15.10;99.90
11840;DHT22;5979;50.800;4.904;2023-07-22T04:55:20;15.60;99.90
11840;DHT22;5979;50.800;4.904;2023-07-22T04:57:46;16.10;99.90
11840;DHT22;5979;50.800;4.904;2023-07-22T05:00:12;16.70;99.90
11840;DHT22;5979;50.800;4.904;2023-07-22T05:02:40;17.10;99.90
11840;DHT22;5979;50.800;4.904;2023-07-22T05:05:06;17.40;99.90
11840;DHT22;5979;50.800;4.904;2023-07-22T05:07:32;17.70;99.90
11840;DHT22;5979;50.800;4.904;2023-07-22T05:09:58;18.00;99.90
11840;DHT22;5979;50.800;4.904;2023-07-22T05:12:24;18.20;99.90
11840;DHT22;5979;50.800;4.904;2023-07-22T05:14:49;18.50;99.90
11840;DHT22;5979;50.800;4.904;2023-07-22T05:17:15;18.60;99.90
11840;DHT22;5979;50.800;4.904;2023-07-22T05:19:41;18.60;99.90
11840;DHT22;5979;50.800;4.904;2023-07-22T05:22:07;18.70;99.90
11840;DHT22;5979;50.800;4.904;2023-07-22T05:24:33;18.60;99.90
11840;DHT22;5979;50.800;4.904;2023-07-22T05:26:58;18.40;99.90
11840;DHT22;5979;50.800;4.904;2023-07-22T05:29:24;18.30;99.90
11840;DHT22;5979;50.800;4.904;2023-07-22T05:31:50;18.10;99.90
11840;DHT22;5979;50.800;4.904;2023-07-22T05:34:15;18.00;99.90
11840;DHT22;5979;50.800;4.904;2023-07-22T05:36:41;17.80;99.90
11840;DHT22;5979;50.800;4.904;2023-07-22T05:39:07;17.70;99.90
11840;DHT22;5979;50.800;4.904;2023-07-22T05:41:33;17.60;99.90
11840;DHT22;5979;50.800;4.904;2023-07-22T05:43:59;17.60;99.90
11840;DHT22;5979;50.800;4.904;2023-07-22T05:46:24;17.50;99.90
11840;DHT22;5979;50.800;4.904;2023-07-22T05:48:50;17.50;99.90
11840;DHT22;5979;50.800;4.904;2023-07-22T05:51:16;17.50;99.90
11840;DHT22;5979;50.800;4.904;2023-07-22T05:53:42;17.60;99.90
11840;DHT22;5979;50.800;4.904;2023-07-22T05:56:08;17.60;99.90
11840;DHT22;5979;50.800;4.904;2023-07-22T05:58:34;17.80;99.90
11840;DHT22;5979;50.800;4.904;2023-07-22T06:01:00;18.00;99.90
11840;DHT22;5979;50.800;4.904;2023-07-22T06:03:26;18.20;99.90
11840;DHT22;5979;50.800;4.904;2023-07-22T06:05:51;18.40;99.90
11840;DHT22;5979;50.800;4.904;2023-07-22T06:08:17;18.60;99.90
11840;DHT22;5979;50.800;4.904;2023-07-22T06:10:43;18.60;99.90
11840;DHT22;5979;50.800;4.904;2023-07-22T06:13:09;18.60;99.90
11840;DHT22;5979;50.800;4.904;2023-07-22T06:15:34;18.60;99.90
11840;DHT22;5979;50.800;4.904;2023-07-22T06:18:01;18.50;99.90
11840;DHT22;5979;50.800;4.904;2023-07-22T06:20:27;18.60;99.90
11840;DHT22;5979;50.800;4.904;2023-07-22T06:22:52;18.50;99.90
11840;DHT22;5979;50.800;4.904;2023-07-22T06:25:18;18.40;99.90
11840;DHT22;5979;50.800;4.904;2023-07-22T06:27:44;18.30;99.90
11840;DHT22;5979;50.800;4.904;2023-07-22T06:30:10;18.20;99.90
11840;DHT22;5979;50.800;4.904;2023-07-22T06:32:38;18.30;99.90
11840;DHT22;5979;50.800;4.904;2023-07-22T06:35:04;18.30;99.90
11840;DHT22;5979;50.800;4.904;2023-07-22T06:37:30;18.20;99.90
11840;DHT22;5979;50.800;4.904;2023-07-22T06:39:56;18.20;99.90
11840;DHT22;5979;50.800;4.904;2023-07-22T06:42:21;18.20;99.90
11840;DHT22;5979;50.800;4.904;2023-07-22T06:44:47;18.20;99.90
11840;DHT22;5979;50.800;4.904;2023-07-22T06:47:13;18.20;99.90
11840;DHT22;5979;50.800;4.904;2023-07-22T06:49:39;18.30;99.90
11840;DHT22;5979;50.800;4.904;2023-07-22T06:52:06;18.30;99.90
11840;DHT22;5979;50.800;4.904;2023-07-22T06:54:32;18.30;99.90
11840;DHT22;5979;50.800;4.904;2023-07-22T06:56:58;18.40;99.90
11840;DHT22;5979;50.800;4.904;2023-07-22T06:59:23;18.50;99.90
11840;DHT22;5979;50.800;4.904;2023-07-22T07:01:49;18.60;99.90
11840;DHT22;5979;50.800;4.904;2023-07-22T07:04:14;18.80;99.90
11840;DHT22;5979;50.800;4.904;2023-07-22T07:06:40;18.90;99.90
11840;DHT22;5979;50.800;4.904;2023-07-22T07:09:06;18.90;99.90
11840;DHT22;5979;50.800;4.904;2023-07-22T07:11:31;18.90;99.90
11840;DHT22;5979;50.800;4.904;2023-07-22T07:13:57;19.10;99.90
11840;DHT22;5979;50.800;4.904;2023-07-22T07:16:25;19.10;99.90
11840;DHT22;5979;50.800;4.904;2023-07-22T07:18:52;19.10;99.90
11840;DHT22;5979;50.800;4.904;2023-07-22T07:21:18;19.10;99.90
11840;DHT22;5979;50.800;4.904;2023-07-22T07:23:45;19.20;99.90
11840;DHT22;5979;50.800;4.904;2023-07-22T07:26:10;19.20;99.90
11840;DHT22;5979;50.800;4.904;2023-07-22T07:28:36;19.30;99.90
11840;DHT22;5979;50.800;4.904;2023-07-22T07:31:02;19.30;99.90
11840;DHT22;5979;50.800;4.904;2023-07-22T07:33:28;19.30;99.90
11840;DHT22;5979;50.800;4.904;2023-07-22T07:35:54;19.40;99.90
11840;DHT22;5979;50.800;4.904;2023-07-22T07:38:19;19.40;99.90
11840;DHT22;5979;50.800;4.904;2023-07-22T07:40:45;19.40;99.90
11840;DHT22;5979;50.800;4.904;2023-07-22T07:43:11;19.50;99.90
11840;DHT22;5979;50.800;4.904;2023-07-22T07:45:38;19.50;99.90
11840;DHT22;5979;50.800;4.904;2023-07-22T07:48:04;19.70;99.90
11840;DHT22;5979;50.800;4.904;2023-07-22T07:50:31;19.70;99.90
11840;DHT22;5979;50.800;4.904;2023-07-22T07:52:57;19.70;99.90
11840;DHT22;5979;50.800;4.904;2023-07-22T07:55:23;19.70;99.90
11840;DHT22;5979;50.800;4.904;2023-07-22T07:57:48;19.80;99.90
11840;DHT22;5979;50.800;4.904;2023-07-22T08:00:14;19.90;99.90
11840;DHT22;5979;50.800;4.904;2023-07-22T08:02:40;20.00;99.90
11840;DHT22;5979;50.800;4.904;2023-07-22T08:05:06;20.10;99.90
11840;DHT22;5979;50.800;4.904;2023-07-22T08:07:31;20.30;99.90
11840;DHT22;5979;50.800;4.904;2023-07-22T08:09:57;20.50;99.90
11840;DHT22;5979;50.800;4.904;2023-07-22T08:12:24;20.80;99.90
11840;DHT22;5979;50.800;4.904;2023-07-22T08:14:51;21.00;99.90
11840;DHT22;5979;50.800;4.904;2023-07-22T08:17:17;21.20;99.90
11840;DHT22;5979;50.800;4.904;2023-07-22T08:19:43;21.30;99.90
11840;DHT22;5979;50.800;4.904;2023-07-22T08:22:09;21.30;99.90
11840;DHT22;5979;50.800;4.904;2023-07-22T08:24:34;21.30;99.90
11840;DHT22;5979;50.800;4.904;2023-07-22T08:27:00;21.30;99.90
11840;DHT22;5979;50.800;4.904;2023-07-22T08:29:26;21.20;99.90
11840;DHT22;5979;50.800;4.904;2023-07-22T08:31:51;21.30;99.90
11840;DHT22;5979;50.800;4.904;2023-07-22T08:34:17;21.30;99.90
11840;DHT22;5979;50.800;4.904;2023-07-22T08:36:43;21.50;99.90
11840;DHT22;5979;50.800;4.904;2023-07-22T08:39:09;21.60;99.90
11840;DHT22;5979;50.800;4.904;2023-07-22T08:41:35;21.60;99.90
11840;DHT22;5979;50.800;4.904;2023-07-22T08:44:02;21.60;99.90
11840;DHT22;5979;50.800;4.904;2023-07-22T08:46:29;21.60;99.90
11840;DHT22;5979;50.800;4.904;2023-07-22T08:49:00;21.70;99.90
11840;DHT22;5979;50.800;4.904;2023-07-22T08:51:26;21.70;99.90
11840;DHT22;5979;50.800;4.904;2023-07-22T08:53:56;21.90;99.90
11840;DHT22;5979;50.800;4.904;2023-07-22T08:56:25;21.90;99.90
11840;DHT22;5979;50.800;4.904;2023-07-22T08:58:55;22.10;99.90
11840;DHT22;5979;50.800;4.904;2023-07-22T09:01:22;22.10;99.90
11840;DHT22;5979;50.800;4.904;2023-07-22T09:03:49;22.20;99.90
11840;DHT22;5979;50.800;4.904;2023-07-22T09:06:19;22.30;99.90
11840;DHT22;5979;50.800;4.904;2023-07-22T09:08:45;22.50;99.90
11840;DHT22;5979;50.800;4.904;2023-07-22T09:11:11;22.60;99.90
11840;DHT22;5979;50.800;4.904;2023-07-22T09:13:38;22.80;99.90
11840;DHT22;5979;50.800;4.904;2023-07-22T09:16:06;23.10;99.90
11840;DHT22;5979;50.800;4.904;2023-07-22T09:18:35;23.30;99.90
11840;DHT22;5979;50.800;4.904;2023-07-22T09:21:01;23.30;99.90
11840;DHT22;5979;50.800;4.904;2023-07-22T09:26:13;23.40;99.90
11840;DHT22;5979;50.800;4.904;2023-07-22T09:28:57;23.40;99.90
11840;DHT22;5979;50.800;4.904;2023-07-22T09:31:25;23.50;99.90
11840;DHT22;5979;50.800;4.904;2023-07-22T09:33:52;23.50;99.90
11840;DHT22;5979;50.800;4.904;2023-07-22T09:36:19;23.50;99.90
11840;DHT22;5979;50.800;4.904;2023-07-22T09:38:58;23.60;99.90
11840;DHT22;5979;50.800;4.904;2023-07-22T09:41:28;23.70;99.90
11840;DHT22;5979;50.800;4.904;2023-07-22T09:43:55;23.90;99.90
11840;DHT22;5979;50.800;4.904;2023-07-22T09:46:22;24.00;99.90
11840;DHT22;5979;50.800;4.904;2023-07-22T09:48:56;24.20;99.90
11840;DHT22;5979;50.800;4.904;2023-07-22T09:51:21;24.30;99.90
11840;DHT22;5979;50.800;4.904;2023-07-22T09:53:58;24.50;99.90
11840;DHT22;5979;50.800;4.904;2023-07-22T09:56:24;24.50;99.90
11840;DHT22;5979;50.800;4.904;2023-07-22T09:58:51;24.60;99.90
11840;DHT22;5979;50.800;4.904;2023-07-22T10:01:20;24.70;99.90
11840;DHT22;5979;50.800;4.904;2023-07-22T10:03:53;24.60;99.90
11840;DHT22;5979;50.800;4.904;2023-07-22T10:06:27;24.80;99.90
11840;DHT22;5979;50.800;4.904;2023-07-22T10:08:55;24.90;99.90
11840;DHT22;5979;50.800;4.904;2023-07-22T10:11:22;24.90;99.90
11840;DHT22;5979;50.800;4.904;2023-07-22T10:13:52;24.80;99.90
11840;DHT22;5979;50.800;4.904;2023-07-22T10:16:18;24.80;99.90
11840;DHT22;5979;50.800;4.904;2023-07-22T10:18:45;24.80;99.90
11840;DHT22;5979;50.800;4.904;2023-07-22T10:21:12;24.70;99.90
11840;DHT22;5979;50.800;4.904;2023-07-22T10:23:38;24.40;99.90
11840;DHT22;5979;50.800;4.904;2023-07-22T10:26:05;24.30;99.90
11840;DHT22;5979;50.800;4.904;2023-07-22T10:28:31;24.50;99.90
11840;DHT22;5979;50.800;4.904;2023-07-22T10:30:58;24.60;99.90
11840;DHT22;5979;50.800;4.904;2023-07-22T10:33:25;24.80;99.90
11840;DHT22;5979;50.800;4.904;2023-07-22T10:36:04;25.10;99.90
11840;DHT22;5979;50.800;4.904;2023-07-22T10:38:31;25.40;99.90
11840;DHT22;5979;50.800;4.904;2023-07-22T10:40:57;25.60;99.90
11840;DHT22;5979;50.800;4.904;2023-07-22T10:43:30;25.70;99.90
11840;DHT22;5979;50.800;4.904;2023-07-22T10:45:58;25.90;99.90
11840;DHT22;5979;50.800;4.904;2023-07-22T10:48:33;25.90;99.90
11840;DHT22;5979;50.800;4.904;2023-07-22T10:51:06;25.90;99.90
11840;DHT22;5979;50.800;4.904;2023-07-22T10:53:32;25.70;99.90
11840;DHT22;5979;50.800;4.904;2023-07-22T11:11:54;26.20;99.90
11840;DHT22;5979;50.800;4.904;2023-07-22T11:14:23;26.20;99.90
11840;DHT22;5979;50.800;4.904;2023-07-22T11:16:49;26.10;99.90
11840;DHT22;5979;50.800;4.904;2023-07-22T11:19:19;26.10;99.90
11840;DHT22;5979;50.800;4.904;2023-07-22T11:21:46;26.10;99.90
11840;DHT22;5979;50.800;4.904;2023-07-22T11:24:12;26.00;99.90
11840;DHT22;5979;50.800;4.904;2023-07-22T11:26:39;25.90;99.90
11840;DHT22;5979;50.800;4.904;2023-07-22T11:29:07;25.80;99.90
11840;DHT22;5979;50.800;4.904;2023-07-22T11:31:39;25.70;99.90
11840;DHT22;5979;50.800;4.904;2023-07-22T11:34:12;25.70;99.90
11840;DHT22;5979;50.800;4.904;2023-07-22T11:36:38;25.70;99.90
11840;DHT22;5979;50.800;4.904;2023-07-22T11:39:10;25.80;99.90
11840;DHT22;5979;50.800;4.904;2023-07-22T11:41:37;25.80;99.90
11840;DHT22;5979;50.800;4.904;2023-07-22T11:44:04;25.90;99.90
11840;DHT22;5979;50.800;4.904;2023-07-22T11:46:52;26.00;99.90
11840;DHT22;5979;50.800;4.904;2023-07-22T11:49:29;26.00;99.90
11840;DHT22;5979;50.800;4.904;2023-07-22T11:51:56;26.00;99.90
11840;DHT22;5979;50.800;4.904;2023-07-22T11:54:24;25.90;99.90
11840;DHT22;5979;50.800;4.904;2023-07-22T11:56:50;25.70;99.90
11840;DHT22;5979;50.800;4.904;2023-07-22T11:59:16;25.60;99.90
11840;DHT22;5979;50.800;4.904;2023-07-22T12:01:45;25.50;99.90
11840;DHT22;5979;50.800;4.904;2023-07-22T12:04:13;25.40;99.90
11840;DHT22;5979;50.800;4.904;2023-07-22T12:06:39;25.30;99.90
11840;DHT22;5979;50.800;4.904;2023-07-22T12:09:07;25.40;99.90
11840;DHT22;5979;50.800;4.904;2023-07-22T12:11:35;25.30;99.90
11840;DHT22;5979;50.800;4.904;2023-07-22T12:14:12;25.40;99.90
11840;DHT22;5979;50.800;4.904;2023-07-22T12:16:40;25.50;99.90
11840;DHT22;5979;50.800;4.904;2023-07-22T12:19:06;25.50;99.90
11840;DHT22;5979;50.800;4.904;2023-07-22T12:21:32;25.40;99.90
11840;DHT22;5979;50.800;4.904;2023-07-22T12:23:59;25.50;99.90
11840;DHT22;5979;50.800;4.904;2023-07-22T12:26:25;25.60;99.90
11840;DHT22;5979;50.800;4.904;2023-07-22T12:28:51;25.50;99.90
11840;DHT22;5979;50.800;4.904;2023-07-22T12:31:16;25.50;99.90
11840;DHT22;5979;50.800;4.904;2023-07-22T12:33:42;25.70;99.90
11840;DHT22;5979;50.800;4.904;2023-07-22T12:36:08;25.80;99.90
11840;DHT22;5979;50.800;4.904;2023-07-22T12:38:34;25.80;99.90
11840;DHT22;5979;50.800;4.904;2023-07-22T12:41:00;25.70;99.90
11840;DHT22;5979;50.800;4.904;2023-07-22T12:43:26;25.80;99.90
11840;DHT22;5979;50.800;4.904;2023-07-22T12:45:52;25.80;99.90
11840;DHT22;5979;50.800;4.904;2023-07-22T12:48:18;25.70;99.90
11840;DHT22;5979;50.800;4.904;2023-07-22T12:50:44;25.80;99.90
11840;DHT22;5979;50.800;4.904;2023-07-22T12:53:10;25.70;99.90
11840;DHT22;5979;50.800;4.904;2023-07-22T12:55:36;25.60;99.90
11840;DHT22;5979;50.800;4.904;2023-07-22T12:58:01;25.70;99.90
11840;DHT22;5979;50.800;4.904;2023-07-22T13:00:28;25.70;99.90
11840;DHT22;5979;50.800;4.904;2023-07-22T13:02:53;25.80;99.90
11840;DHT22;5979;50.800;4.904;2023-07-22T13:05:19;25.50;99.90
11840;DHT22;5979;50.800;4.904;2023-07-22T13:07:45;25.40;99.90
11840;DHT22;5979;50.800;4.904;2023-07-22T13:10:11;25.40;99.90
11840;DHT22;5979;50.800;4.904;2023-07-22T13:12:40;25.40;99.90
11840;DHT22;5979;50.800;4.904;2023-07-22T13:15:06;25.20;99.90
11840;DHT22;5979;50.800;4.904;2023-07-22T13:17:32;25.00;99.90
11840;DHT22;5979;50.800;4.904;2023-07-22T13:19:58;24.90;99.90
11840;DHT22;5979;50.800;4.904;2023-07-22T13:22:23;25.00;99.90
11840;DHT22;5979;50.800;4.904;2023-07-22T13:24:49;25.00;99.90
11840;DHT22;5979;50.800;4.904;2023-07-22T13:27:15;25.00;99.90
11840;DHT22;5979;50.800;4.904;2023-07-22T13:29:40;25.00;99.90
11840;DHT22;5979;50.800;4.904;2023-07-22T13:32:06;25.10;99.90
11840;DHT22;5979;50.800;4.904;2023-07-22T13:34:32;25.10;99.90
11840;DHT22;5979;50.800;4.904;2023-07-22T13:36:58;25.00;99.90
11840;DHT22;5979;50.800;4.904;2023-07-22T13:39:24;25.00;99.90
11840;DHT22;5979;50.800;4.904;2023-07-22T13:41:49;25.00;99.90
11840;DHT22;5979;50.800;4.904;2023-07-22T13:44:15;25.10;99.90
11840;DHT22;5979;50.800;4.904;2023-07-22T13:46:41;25.20;99.90
11840;DHT22;5979;50.800;4.904;2023-07-22T13:49:07;25.30;99.90
11840;DHT22;5979;50.800;4.904;2023-07-22T13:51:33;25.40;99.90
11840;DHT22;5979;50.800;4.904;2023-07-22T13:53:59;25.30;99.90
11840;DHT22;5979;50.800;4.904;2023-07-22T13:56:24;25.30;99.90
11840;DHT22;5979;50.800;4.904;2023-07-22T13:58:50;25.30;99.90
11840;DHT22;5979;50.800;4.904;2023-07-22T14:01:16;25.10;99.90
11840;DHT22;5979;50.800;4.904;2023-07-22T14:03:42;25.00;99.90
11840;DHT22;5979;50.800;4.904;2023-07-22T14:06:07;25.00;99.90
11840;DHT22;5979;50.800;4.904;2023-07-22T14:08:33;25.00;99.90
11840;DHT22;5979;50.800;4.904;2023-07-22T14:10:59;25.00;99.90
11840;DHT22;5979;50.800;4.904;2023-07-22T14:13:25;24.80;99.90
11840;DHT22;5979;50.800;4.904;2023-07-22T14:15:51;24.80;99.90
11840;DHT22;5979;50.800;4.904;2023-07-22T14:18:16;24.80;99.90
11840;DHT22;5979;50.800;4.904;2023-07-22T14:20:45;24.80;99.90
11840;DHT22;5979;50.800;4.904;2023-07-22T14:23:11;24.80;99.90
11840;DHT22;5979;50.800;4.904;2023-07-22T14:25:37;24.80;99.90
11840;DHT22;5979;50.800;4.904;2023-07-22T14:28:02;24.90;99.90
11840;DHT22;5979;50.800;4.904;2023-07-22T14:30:28;24.90;99.90
11840;DHT22;5979;50.800;4.904;2023-07-22T14:32:54;24.90;99.90
11840;DHT22;5979;50.800;4.904;2023-07-22T14:35:20;24.80;99.90
11840;DHT22;5979;50.800;4.904;2023-07-22T14:37:46;24.60;99.90
11840;DHT22;5979;50.800;4.904;2023-07-22T14:40:12;24.60;99.90
11840;DHT22;5979;50.800;4.904;2023-07-22T14:42:38;24.60;99.90
11840;DHT22;5979;50.800;4.904;2023-07-22T14:45:04;24.50;99.90
11840;DHT22;5979;50.800;4.904;2023-07-22T14:47:30;24.40;99.90
11840;DHT22;5979;50.800;4.904;2023-07-22T14:49:56;24.20;99.90
11840;DHT22;5979;50.800;4.904;2023-07-22T14:52:22;24.00;99.90
11840;DHT22;5979;50.800;4.904;2023-07-22T14:54:48;23.90;99.90
11840;DHT22;5979;50.800;4.904;2023-07-22T14:57:16;23.80;99.90
11840;DHT22;5979;50.800;4.904;2023-07-22T14:59:41;23.80;99.90
11840;DHT22;5979;50.800;4.904;2023-07-22T15:02:07;23.70;99.90
11840;DHT22;5979;50.800;4.904;2023-07-22T15:04:33;23.70;99.90
11840;DHT22;5979;50.800;4.904;2023-07-22T15:06:58;23.60;99.90
11840;DHT22;5979;50.800;4.904;2023-07-22T15:09:24;23.60;99.90
11840;DHT22;5979;50.800;4.904;2023-07-22T15:11:50;23.70;99.90
11840;DHT22;5979;50.800;4.904;2023-07-22T15:14:15;23.80;99.90
11840;DHT22;5979;50.800;4.904;2023-07-22T15:16:41;24.00;99.90
11840;DHT22;5979;50.800;4.904;2023-07-22T15:19:07;24.10;99.90
11840;DHT22;5979;50.800;4.904;2023-07-22T15:21:33;24.20;99.90
11840;DHT22;5979;50.800;4.904;2023-07-22T15:23:59;24.30;99.90
11840;DHT22;5979;50.800;4.904;2023-07-22T15:26:24;24.50;99.90
11840;DHT22;5979;50.800;4.904;2023-07-22T15:28:51;24.50;99.90
11840;DHT22;5979;50.800;4.904;2023-07-22T15:31:18;24.60;99.90
11840;DHT22;5979;50.800;4.904;2023-07-22T15:33:43;24.50;99.90
11840;DHT22;5979;50.800;4.904;2023-07-22T15:36:09;24.50;99.90
11840;DHT22;5979;50.800;4.904;2023-07-22T15:38:35;24.30;99.90
11840;DHT22;5979;50.800;4.904;2023-07-22T15:41:01;24.20;99.90
11840;DHT22;5979;50.800;4.904;2023-07-22T15:43:28;24.30;99.90
11840;DHT22;5979;50.800;4.904;2023-07-22T15:45:53;24.30;99.90
11840;DHT22;5979;50.800;4.904;2023-07-22T15:48:19;24.20;99.90
11840;DHT22;5979;50.800;4.904;2023-07-22T15:50:45;24.10;99.90
11840;DHT22;5979;50.800;4.904;2023-07-22T15:53:11;23.90;99.90
11840;DHT22;5979;50.800;4.904;2023-07-22T15:55:37;23.90;99.90
11840;DHT22;5979;50.800;4.904;2023-07-22T15:58:03;23.70;99.90
11840;DHT22;5979;50.800;4.904;2023-07-22T16:00:29;23.60;99.90